createdAt,value
2018-02-04T00:00:02.004Z,90.70
2018-02-04T00:08:46.301Z,88.90
2018-02-04T00:12:48.834Z,88.60
2018-02-04T00:16:52.057Z,88.80
2018-02-04T00:20:54.578Z,89.00
2018-02-04T00:24:57.095Z,89.40
2018-02-04T00:28:59.622Z,89.50
2018-02-04T00:33:02.116Z,89.50
2018-02-04T00:37:04.651Z,89.60
2018-02-04T00:41:07.163Z,89.80
2018-02-04T00:45:10.562Z,90.00
2018-02-04T00:49:20.360Z,90.20
2018-02-04T00:53:22.882Z,85.70
2018-02-04T00:57:26.155Z,80.90
2018-02-04T01:01:28.710Z,80.80
2018-02-04T01:05:31.206Z,80.20
2018-02-04T01:09:41.592Z,78.30
2018-02-04T01:13:44.107Z,77.50
2018-02-04T01:17:47.396Z,76.90
2018-02-04T01:21:50.095Z,76.90
2018-02-04T01:25:53.402Z,77.40
2018-02-04T01:29:57.809Z,77.10
2018-02-04T01:34:00.343Z,77.10
2018-02-04T01:38:02.840Z,77.10
2018-02-04T01:42:05.368Z,77.30
2018-02-04T01:46:07.876Z,77.30
2018-02-04T01:50:11.176Z,77.90
2018-02-04T01:54:14.449Z,77.70
2018-02-04T01:58:16.963Z,77.60
2018-02-04T02:02:20.226Z,78.50
2018-02-04T02:10:51.447Z,78.70
2018-02-04T02:14:53.992Z,78.70
2018-02-04T02:18:56.500Z,78.40
2018-02-04T02:23:27.635Z,78.30
2018-02-04T02:27:49.653Z,78.20
2018-02-04T02:31:58.029Z,78.30
2018-02-04T02:36:00.720Z,78.40
2018-02-04T02:40:04.041Z,78.20
2018-02-04T02:44:09.189Z,78.10
2018-02-04T02:48:12.917Z,78.00
2018-02-04T02:52:15.429Z,78.20
2018-02-04T02:56:26.313Z,78.50
2018-02-04T03:00:40.275Z,78.10
2018-02-04T03:09:11.827Z,78.20
2018-02-04T03:13:14.867Z,78.20
2018-02-04T03:17:18.200Z,79.00
2018-02-04T03:21:20.699Z,79.00
2018-02-04T03:25:23.996Z,79.10
2018-02-04T03:33:53.848Z,79.30
2018-02-04T03:37:56.443Z,79.30
2018-02-04T03:41:59.793Z,79.70
2018-02-04T03:46:02.548Z,79.60
2018-02-04T03:50:05.849Z,80.00
2018-02-04T03:54:09.130Z,80.10
2018-02-04T03:58:11.648Z,80.10
2018-02-04T04:02:14.912Z,80.60
2018-02-04T04:06:17.444Z,80.50
2018-02-04T04:10:19.961Z,80.60
2018-02-04T04:14:22.480Z,80.70
2018-02-04T04:18:24.992Z,80.80
2018-02-04T04:22:29.003Z,81.10
2018-02-04T04:26:32.262Z,81.10
2018-02-04T04:30:34.794Z,80.90
2018-02-04T04:34:38.062Z,81.40
2018-02-04T04:38:41.366Z,81.50
2018-02-04T04:42:43.860Z,81.50
2018-02-04T04:46:46.379Z,81.80
2018-02-04T04:50:49.664Z,82.70
2018-02-04T04:54:52.191Z,82.60
2018-02-04T04:58:54.706Z,83.70
2018-02-04T05:02:57.235Z,84.60
2018-02-04T05:07:00.504Z,85.90
2018-02-04T05:11:03.036Z,85.90
2018-02-04T05:15:05.572Z,86.90
2018-02-04T05:19:08.097Z,87.60
2018-02-04T05:23:14.323Z,88.30
2018-02-04T05:27:16.850Z,88.20
2018-02-04T05:31:20.114Z,88.40
2018-02-04T05:35:22.637Z,88.40
2018-02-04T05:39:25.891Z,89.00
2018-02-04T05:43:28.421Z,89.00
2018-02-04T05:47:31.698Z,89.70
2018-02-04T05:51:34.216Z,89.70
2018-02-04T05:55:52.449Z,90.10
2018-02-04T05:59:54.991Z,90.40
2018-02-04T06:03:57.499Z,90.20
2018-02-04T06:08:00.028Z,90.20
2018-02-04T06:12:03.299Z,90.40
2018-02-04T06:16:05.825Z,90.40
2018-02-04T06:20:09.078Z,90.20
2018-02-04T06:24:11.603Z,90.20
2018-02-04T06:28:14.869Z,89.30
2018-02-04T06:32:17.427Z,89.30
2018-02-04T06:36:19.928Z,88.60
2018-02-04T06:40:23.241Z,88.50
2018-02-04T06:44:26.446Z,87.80
2018-02-04T06:48:28.959Z,87.80
2018-02-04T06:52:31.487Z,87.90
2018-02-04T06:56:34.015Z,88.10
2018-02-04T07:00:36.521Z,88.60
2018-02-04T07:04:39.803Z,88.90
2018-02-04T07:08:42.296Z,88.90
2018-02-04T07:12:44.843Z,89.00
2018-02-04T07:16:47.351Z,89.00
2018-02-04T07:20:49.875Z,88.70
2018-02-04T07:24:53.149Z,88.60
2018-02-04T07:28:55.669Z,88.60
2018-02-04T07:32:58.943Z,89.90
2018-02-04T07:37:01.459Z,89.90
2018-02-04T07:41:04.753Z,90.00
2018-02-04T07:45:08.049Z,90.20
2018-02-04T07:49:10.560Z,90.10
2018-02-04T07:53:13.092Z,90.40
2018-02-04T07:57:15.596Z,90.50
2018-02-04T08:01:18.132Z,90.50
2018-02-04T08:05:20.632Z,90.60
2018-02-04T08:09:23.157Z,90.70
2018-02-04T08:13:26.463Z,90.10
2018-02-04T08:17:29.020Z,90.10
2018-02-04T08:21:31.667Z,89.80
2018-02-04T08:25:34.216Z,88.40
2018-02-04T08:29:36.721Z,87.30
2018-02-04T08:33:40.026Z,85.30
2018-02-04T08:37:43.299Z,85.10
2018-02-04T08:41:45.959Z,85.10
2018-02-04T08:45:48.490Z,84.50
2018-02-04T08:49:51.808Z,83.40
2018-02-04T08:53:55.071Z,82.30
2018-02-04T08:57:57.605Z,82.30
2018-02-04T09:02:00.869Z,82.30
2018-02-04T09:06:03.384Z,82.20
2018-02-04T09:10:06.654Z,82.30
2018-02-04T09:14:09.193Z,82.30
2018-02-04T09:18:11.714Z,81.90
2018-02-04T09:22:14.248Z,81.70
2018-02-04T09:26:17.516Z,81.80
2018-02-04T09:30:20.042Z,81.60
2018-02-04T09:34:30.850Z,80.30
2018-02-04T09:38:33.367Z,80.20
2018-02-04T09:42:35.866Z,80.10
2018-02-04T09:46:38.959Z,79.70
2018-02-04T09:50:41.484Z,79.50
2018-02-04T09:54:44.017Z,78.80
2018-02-04T09:58:50.040Z,77.70
2018-02-04T10:02:53.297Z,78.30
2018-02-04T10:06:55.827Z,78.30
2018-02-04T10:10:58.344Z,78.30
2018-02-04T10:15:02.348Z,79.10
2018-02-04T10:19:04.866Z,79.20
2018-02-04T10:23:09.086Z,78.90
2018-02-04T10:27:11.596Z,78.10
2018-02-04T10:31:14.116Z,78.10
2018-02-04T10:35:16.627Z,77.90
2018-02-04T10:39:19.150Z,77.50
2018-02-04T10:43:21.672Z,76.50
2018-02-04T10:47:24.181Z,75.00
2018-02-04T10:51:32.311Z,75.50
2018-02-04T10:55:35.557Z,75.00
2018-02-04T10:59:38.840Z,74.20
2018-02-04T11:03:47.300Z,74.10
2018-02-04T11:12:20.901Z,75.60
2018-02-04T11:16:23.705Z,75.50
2018-02-04T11:20:27.047Z,75.20
2018-02-04T11:24:29.592Z,74.80
2018-02-04T11:28:32.088Z,75.50
2018-02-04T11:32:34.620Z,75.80
2018-02-04T11:36:37.159Z,76.30
2018-02-04T11:40:39.707Z,76.00
2018-02-04T11:44:42.231Z,76.80
2018-02-04T11:48:44.763Z,77.00
2018-02-04T11:52:47.352Z,76.60
2018-02-04T11:56:49.910Z,76.80
2018-02-04T12:00:52.516Z,76.50
2018-02-04T12:04:55.060Z,75.80
2018-02-04T12:08:57.589Z,75.60
2018-02-04T12:13:00.152Z,74.60
2018-02-04T12:17:03.438Z,74.60
2018-02-04T12:21:06.019Z,74.60
2018-02-04T12:25:08.576Z,74.80
2018-02-04T12:29:11.870Z,75.00
2018-02-04T12:33:14.430Z,75.70
2018-02-04T12:37:16.969Z,75.30
2018-02-04T12:41:19.493Z,75.60
2018-02-04T12:45:22.839Z,76.30
2018-02-04T12:49:25.364Z,76.20
2018-02-04T12:53:27.951Z,76.20
2018-02-04T12:57:31.257Z,76.00
2018-02-04T13:01:33.800Z,76.00
2018-02-04T13:05:36.356Z,75.90
2018-02-04T13:09:38.900Z,75.70
2018-02-04T13:13:42.286Z,75.60
2018-02-04T13:17:45.120Z,75.30
2018-02-04T13:21:48.391Z,75.80
2018-02-04T13:25:50.925Z,75.70
2018-02-04T13:29:54.228Z,76.50
2018-02-04T13:33:57.529Z,76.30
2018-02-04T13:38:00.800Z,76.90
2018-02-04T13:42:04.305Z,76.90
2018-02-04T13:46:06.818Z,76.00
2018-02-04T13:50:10.105Z,76.30
2018-02-04T13:54:12.631Z,76.30
2018-02-04T13:58:15.142Z,76.30
2018-02-04T14:02:17.779Z,76.20
2018-02-04T14:06:22.139Z,77.60
2018-02-04T14:10:24.875Z,77.50
2018-02-04T14:14:27.467Z,77.20
2018-02-04T14:18:30.064Z,77.30
2018-02-04T14:22:32.762Z,77.60
2018-02-04T14:26:36.212Z,78.60
2018-02-04T14:30:38.778Z,78.50
2018-02-04T14:34:41.344Z,78.30
2018-02-04T14:38:44.619Z,79.10
2018-02-04T14:42:47.216Z,79.10
2018-02-04T14:46:49.742Z,79.10
2018-02-04T14:50:52.272Z,79.10
2018-02-04T14:55:02.383Z,79.20
2018-02-04T14:59:14.927Z,79.50
2018-02-04T15:03:30.079Z,79.30
2018-02-04T15:07:45.992Z,79.50
2018-02-04T15:11:56.176Z,79.20
2018-02-04T15:16:00.473Z,79.10
2018-02-04T15:20:04.241Z,79.80
2018-02-04T15:24:06.815Z,79.10
2018-02-04T15:28:09.384Z,79.50
2018-02-04T15:32:11.938Z,79.50
2018-02-04T15:36:15.227Z,79.60
2018-02-04T15:40:17.742Z,79.50
2018-02-04T15:44:21.124Z,80.20
2018-02-04T15:48:25.190Z,79.40
2018-02-04T15:52:27.750Z,79.40
2018-02-04T15:56:31.054Z,79.80
2018-02-04T16:00:34.328Z,80.10
2018-02-04T16:04:36.842Z,80.10
2018-02-04T16:08:40.170Z,80.80
2018-02-04T16:12:52.275Z,80.80
2018-02-04T16:16:54.804Z,80.30
2018-02-04T16:20:57.373Z,80.90
2018-02-04T16:25:05.482Z,81.40
2018-02-04T16:29:08.219Z,80.70
2018-02-04T16:33:10.750Z,80.90
2018-02-04T16:37:16.485Z,81.40
2018-02-04T16:41:19.769Z,81.50
2018-02-04T16:45:22.358Z,81.20
2018-02-04T16:49:24.880Z,81.40
2018-02-04T16:53:27.429Z,81.30
2018-02-04T16:57:29.998Z,81.80
2018-02-04T17:01:32.537Z,81.70
2018-02-04T17:05:35.050Z,81.90
2018-02-04T17:09:37.690Z,81.70
2018-02-04T17:13:40.241Z,82.00
2018-02-04T17:17:42.771Z,82.20
2018-02-04T17:21:47.216Z,82.50
2018-02-04T17:25:49.777Z,82.40
2018-02-04T17:29:53.131Z,82.20
2018-02-04T17:33:55.682Z,82.00
2018-02-04T17:37:58.213Z,82.60
2018-02-04T17:42:01.545Z,82.40
2018-02-04T17:46:04.049Z,82.30
2018-02-04T17:50:07.376Z,82.40
2018-02-04T17:54:09.904Z,82.30
2018-02-04T17:58:12.465Z,82.30
2018-02-04T18:02:15.022Z,82.60
2018-02-04T18:06:17.694Z,81.90
2018-02-04T18:10:20.995Z,82.20
2018-02-04T18:14:23.538Z,82.10
2018-02-04T18:18:26.082Z,82.10
2018-02-04T18:22:29.418Z,82.40
2018-02-04T18:39:32.015Z,82.30
2018-02-04T18:43:34.530Z,82.50
2018-02-04T18:47:37.086Z,82.70
2018-02-04T18:51:40.445Z,82.30
2018-02-04T18:55:42.997Z,82.40
2018-02-04T18:59:45.521Z,82.00
2018-02-04T19:03:48.873Z,83.10
2018-02-04T19:07:51.388Z,82.10
2018-02-04T19:11:55.424Z,81.10
2018-02-04T19:15:59.485Z,80.80
2018-02-04T19:20:02.763Z,79.90
2018-02-04T19:24:05.276Z,79.80
2018-02-04T19:28:07.803Z,79.10
2018-02-04T19:32:10.314Z,78.90
2018-02-04T19:36:12.854Z,78.90
2018-02-04T19:40:15.398Z,79.20
2018-02-04T19:44:17.919Z,79.00
2018-02-04T19:48:20.454Z,79.20
2018-02-04T19:52:23.039Z,79.70
2018-02-04T19:56:25.553Z,79.80
2018-02-04T20:00:28.746Z,79.20
2018-02-04T20:04:31.281Z,78.70
2018-02-04T20:08:33.844Z,78.20
2018-02-04T20:12:36.370Z,78.20
2018-02-04T20:16:39.668Z,77.40
2018-02-04T20:20:42.251Z,77.40
2018-02-04T20:24:44.850Z,78.00
2018-02-04T20:28:48.223Z,77.50
2018-02-04T20:37:33.963Z,77.20
2018-02-04T20:41:36.480Z,76.70
2018-02-04T20:45:39.748Z,76.90
2018-02-04T20:49:43.193Z,76.80
2018-02-04T20:53:45.703Z,76.80
2018-02-04T20:57:48.298Z,77.10
2018-02-04T21:01:50.814Z,77.00
2018-02-04T21:05:53.381Z,77.50
2018-02-04T21:09:55.874Z,77.50
2018-02-04T21:13:58.438Z,77.60
2018-02-04T21:18:00.946Z,77.20
2018-02-04T21:22:03.533Z,76.90
2018-02-04T21:26:06.822Z,76.80
2018-02-04T21:30:10.635Z,76.10
2018-02-04T21:34:13.209Z,74.60
2018-02-04T21:38:15.769Z,74.90
2018-02-04T21:42:19.043Z,74.40
2018-02-04T21:46:21.590Z,74.40
2018-02-04T21:50:24.099Z,73.70
2018-02-04T21:54:26.641Z,73.90
2018-02-04T21:58:29.180Z,73.90
2018-02-04T22:02:32.315Z,73.70
2018-02-04T22:06:35.627Z,73.80
2018-02-04T22:10:38.735Z,73.70
2018-02-04T22:14:41.241Z,71.40
2018-02-04T22:18:43.780Z,72.10
2018-02-04T22:22:47.069Z,72.10
2018-02-04T22:26:49.612Z,72.10
2018-02-04T22:30:52.120Z,71.90
2018-02-04T22:34:54.812Z,72.70
2018-02-04T22:38:57.325Z,72.10
2018-02-04T22:43:01.090Z,72.50
2018-02-04T22:47:03.617Z,71.80
2018-02-04T22:51:06.252Z,71.70
2018-02-04T22:55:08.772Z,71.60
2018-02-04T22:59:12.074Z,72.80
2018-02-04T23:03:14.620Z,72.80
2018-02-04T23:07:17.147Z,73.10
2018-02-04T23:11:19.659Z,72.80
2018-02-04T23:15:22.245Z,72.70
2018-02-04T23:19:24.783Z,72.80
2018-02-04T23:23:27.314Z,72.70
2018-02-04T23:27:29.894Z,72.60
2018-02-04T23:31:32.396Z,72.90
2018-02-04T23:35:34.948Z,72.30
2018-02-04T23:39:37.445Z,72.40
2018-02-04T23:43:39.972Z,72.20
2018-02-04T23:47:42.474Z,72.40
2018-02-04T23:51:45.005Z,72.60
2018-02-04T23:55:47.544Z,72.40
2018-02-04T23:59:50.234Z,72.10
